Laie, Hawaii
Current Conditions -  °F | °C
As of 12:57 AM on Monday 20 Oct 2014 (Local Time) from PHNG Reporting Station
Broken Clouds Broken Clouds  
Wind Chill: 79°   Ceiling: 2600
Heat Index: 82°   Visibility: 10mi
Dew Point: 73°   Wind: 9mph
Humidity: 82%   Direction: 60°ENE
Pressure: 29.99"   Gusts: NA
Location:  21.65°N, 157.92°W
Report Text: PHNG 201057Z 06008KT 10SM FEW019 BKN026 BKN033 26/23 A2999 RMK AO2 SLP152 T02610228 $
Loading
Personal Weather Stations






























Interactive Weather Map
Tropical Storm Tracking
New forecast layout! Learn more

10-Day Weather Forecast

Advertisements
Track Severe Weather on mobile